sensor_id;sensor_type;location;lat;lon;timestamp;temperature;humidity
16829;DHT22;8531;48.078;11.968;2023-05-10T00:02:06;14.40;99.90
16829;DHT22;8531;48.078;11.968;2023-05-10T00:04:32;14.50;99.90
16829;DHT22;8531;48.078;11.968;2023-05-10T00:06:57;14.60;99.90
16829;DHT22;8531;48.078;11.968;2023-05-10T00:09:23;14.60;99.90
16829;DHT22;8531;48.078;11.968;2023-05-10T00:11:49;14.60;99.90
16829;DHT22;8531;48.078;11.968;2023-05-10T00:14:14;14.60;99.90
16829;DHT22;8531;48.078;11.968;2023-05-10T00:16:40;14.70;99.90
16829;DHT22;8531;48.078;11.968;2023-05-10T00:19:06;14.70;99.90
16829;DHT22;8531;48.078;11.968;2023-05-10T00:21:31;14.70;99.90
16829;DHT22;8531;48.078;11.968;2023-05-10T00:23:59;14.70;99.90
16829;DHT22;8531;48.078;11.968;2023-05-10T00:26:24;14.70;99.90
16829;DHT22;8531;48.078;11.968;2023-05-10T00:28:50;14.60;99.90
16829;DHT22;8531;48.078;11.968;2023-05-10T00:31:16;14.60;99.90
16829;DHT22;8531;48.078;11.968;2023-05-10T00:33:41;14.60;99.90
16829;DHT22;8531;48.078;11.968;2023-05-10T00:36:07;14.60;99.90
16829;DHT22;8531;48.078;11.968;2023-05-10T00:38:33;14.70;99.90
16829;DHT22;8531;48.078;11.968;2023-05-10T00:40:59;14.70;99.90
16829;DHT22;8531;48.078;11.968;2023-05-10T00:43:25;14.70;99.90
16829;DHT22;8531;48.078;11.968;2023-05-10T00:45:50;14.50;99.90
16829;DHT22;8531;48.078;11.968;2023-05-10T00:48:16;14.40;99.90
16829;DHT22;8531;48.078;11.968;2023-05-10T00:50:42;14.30;99.90
16829;DHT22;8531;48.078;11.968;2023-05-10T00:53:08;14.30;99.90
16829;DHT22;8531;48.078;11.968;2023-05-10T00:55:34;14.30;99.90
16829;DHT22;8531;48.078;11.968;2023-05-10T00:58:00;14.30;99.90
16829;DHT22;8531;48.078;11.968;2023-05-10T01:00:27;14.30;99.90
16829;DHT22;8531;48.078;11.968;2023-05-10T01:02:53;14.20;99.90
16829;DHT22;8531;48.078;11.968;2023-05-10T01:05:19;14.10;99.90
16829;DHT22;8531;48.078;11.968;2023-05-10T01:07:46;14.00;99.90
16829;DHT22;8531;48.078;11.968;2023-05-10T01:10:11;14.00;99.90
16829;DHT22;8531;48.078;11.968;2023-05-10T01:12:40;14.00;99.90
16829;DHT22;8531;48.078;11.968;2023-05-10T01:15:08;14.00;99.90
16829;DHT22;8531;48.078;11.968;2023-05-10T01:17:38;14.00;99.90
16829;DHT22;8531;48.078;11.968;2023-05-10T01:20:05;13.90;99.90
16829;DHT22;8531;48.078;11.968;2023-05-10T01:23:23;13.80;99.90
16829;DHT22;8531;48.078;11.968;2023-05-10T01:29:28;13.90;99.90
16829;DHT22;8531;48.078;11.968;2023-05-10T01:37:12;14.00;99.90
16829;DHT22;8531;48.078;11.968;2023-05-10T01:39:45;13.90;99.90
16829;DHT22;8531;48.078;11.968;2023-05-10T01:42:21;14.00;99.90
16829;DHT22;8531;48.078;11.968;2023-05-10T01:44:57;14.00;99.90
16829;DHT22;8531;48.078;11.968;2023-05-10T01:47:34;14.00;99.90
16829;DHT22;8531;48.078;11.968;2023-05-10T01:50:03;13.90;99.90
16829;DHT22;8531;48.078;11.968;2023-05-10T01:52:42;13.90;99.90
16829;DHT22;8531;48.078;11.968;2023-05-10T01:55:13;13.80;99.90
16829;DHT22;8531;48.078;11.968;2023-05-10T01:57:40;13.90;99.90
16829;DHT22;8531;48.078;11.968;2023-05-10T02:00:08;13.80;99.90
16829;DHT22;8531;48.078;11.968;2023-05-10T02:02:39;13.70;99.90
16829;DHT22;8531;48.078;11.968;2023-05-10T02:05:08;13.70;99.90
16829;DHT22;8531;48.078;11.968;2023-05-10T02:07:36;13.60;99.90
16829;DHT22;8531;48.078;11.968;2023-05-10T02:10:04;13.60;99.90
16829;DHT22;8531;48.078;11.968;2023-05-10T02:12:32;13.60;99.90
16829;DHT22;8531;48.078;11.968;2023-05-10T02:15:01;13.60;99.90
16829;DHT22;8531;48.078;11.968;2023-05-10T02:17:28;13.60;99.90
16829;DHT22;8531;48.078;11.968;2023-05-10T02:19:56;13.60;99.90
16829;DHT22;8531;48.078;11.968;2023-05-10T02:22:23;13.70;99.90
16829;DHT22;8531;48.078;11.968;2023-05-10T02:24:50;13.70;99.90
16829;DHT22;8531;48.078;11.968;2023-05-10T02:27:16;13.70;99.90
16829;DHT22;8531;48.078;11.968;2023-05-10T02:29:42;13.80;99.90
16829;DHT22;8531;48.078;11.968;2023-05-10T02:32:10;13.80;99.90
16829;DHT22;8531;48.078;11.968;2023-05-10T02:34:36;13.80;99.90
16829;DHT22;8531;48.078;11.968;2023-05-10T02:37:02;13.80;99.90
16829;DHT22;8531;48.078;11.968;2023-05-10T02:39:29;13.80;99.90
16829;DHT22;8531;48.078;11.968;2023-05-10T02:41:57;13.80;99.90
16829;DHT22;8531;48.078;11.968;2023-05-10T02:44:23;13.80;99.90
16829;DHT22;8531;48.078;11.968;2023-05-10T02:46:51;13.80;99.90
16829;DHT22;8531;48.078;11.968;2023-05-10T02:49:18;13.80;99.90
16829;DHT22;8531;48.078;11.968;2023-05-10T02:51:49;13.80;99.90
16829;DHT22;8531;48.078;11.968;2023-05-10T02:54:19;13.90;99.90
16829;DHT22;8531;48.078;11.968;2023-05-10T02:56:50;13.80;99.90
16829;DHT22;8531;48.078;11.968;2023-05-10T02:59:16;13.80;99.90
16829;DHT22;8531;48.078;11.968;2023-05-10T03:01:42;13.80;99.90
16829;DHT22;8531;48.078;11.968;2023-05-10T03:04:07;13.80;99.90
16829;DHT22;8531;48.078;11.968;2023-05-10T03:06:33;13.80;99.90
16829;DHT22;8531;48.078;11.968;2023-05-10T03:08:59;13.80;99.90
16829;DHT22;8531;48.078;11.968;2023-05-10T03:11:55;13.80;99.90
16829;DHT22;8531;48.078;11.968;2023-05-10T03:14:26;13.80;99.90
16829;DHT22;8531;48.078;11.968;2023-05-10T03:17:06;13.80;99.90
16829;DHT22;8531;48.078;11.968;2023-05-10T03:19:53;13.80;99.90
16829;DHT22;8531;48.078;11.968;2023-05-10T03:22:36;13.80;99.90
16829;DHT22;8531;48.078;11.968;2023-05-10T03:25:06;13.80;99.90
16829;DHT22;8531;48.078;11.968;2023-05-10T03:27:32;13.80;99.90
16829;DHT22;8531;48.078;11.968;2023-05-10T03:30:00;13.80;99.90
16829;DHT22;8531;48.078;11.968;2023-05-10T03:32:29;13.80;99.90
16829;DHT22;8531;48.078;11.968;2023-05-10T03:34:55;13.80;99.90
16829;DHT22;8531;48.078;11.968;2023-05-10T03:37:21;13.80;99.90
16829;DHT22;8531;48.078;11.968;2023-05-10T03:39:47;13.80;99.90
16829;DHT22;8531;48.078;11.968;2023-05-10T03:42:12;13.90;99.90
16829;DHT22;8531;48.078;11.968;2023-05-10T03:44:41;13.90;99.90
16829;DHT22;8531;48.078;11.968;2023-05-10T03:47:06;13.80;99.90
16829;DHT22;8531;48.078;11.968;2023-05-10T03:49:32;13.80;99.90
16829;DHT22;8531;48.078;11.968;2023-05-10T03:51:58;13.80;99.90
16829;DHT22;8531;48.078;11.968;2023-05-10T03:54:23;13.80;99.90
16829;DHT22;8531;48.078;11.968;2023-05-10T03:56:49;13.70;99.90
16829;DHT22;8531;48.078;11.968;2023-05-10T03:59:15;13.80;99.90
16829;DHT22;8531;48.078;11.968;2023-05-10T04:01:40;13.70;99.90
16829;DHT22;8531;48.078;11.968;2023-05-10T04:04:06;13.80;99.90
16829;DHT22;8531;48.078;11.968;2023-05-10T04:06:32;13.80;99.90
16829;DHT22;8531;48.078;11.968;2023-05-10T04:08:58;13.70;99.90
16829;DHT22;8531;48.078;11.968;2023-05-10T04:11:25;13.80;99.90
16829;DHT22;8531;48.078;11.968;2023-05-10T04:13:51;13.70;99.90
16829;DHT22;8531;48.078;11.968;2023-05-10T04:16:17;13.70;99.90
16829;DHT22;8531;48.078;11.968;2023-05-10T04:18:43;13.70;99.90
16829;DHT22;8531;48.078;11.968;2023-05-10T04:21:12;13.70;99.90
16829;DHT22;8531;48.078;11.968;2023-05-10T04:23:38;13.70;99.90
16829;DHT22;8531;48.078;11.968;2023-05-10T04:26:04;13.70;99.90
16829;DHT22;8531;48.078;11.968;2023-05-10T04:28:30;13.70;99.90
16829;DHT22;8531;48.078;11.968;2023-05-10T04:31:06;13.70;99.90
16829;DHT22;8531;48.078;11.968;2023-05-10T04:33:32;13.70;99.90
16829;DHT22;8531;48.078;11.968;2023-05-10T04:35:58;13.70;99.90
16829;DHT22;8531;48.078;11.968;2023-05-10T04:38:24;13.70;99.90
16829;DHT22;8531;48.078;11.968;2023-05-10T04:40:50;13.70;99.90
16829;DHT22;8531;48.078;11.968;2023-05-10T04:43:15;13.70;99.90
16829;DHT22;8531;48.078;11.968;2023-05-10T04:45:41;13.70;99.90
16829;DHT22;8531;48.078;11.968;2023-05-10T04:48:07;13.70;99.90
16829;DHT22;8531;48.078;11.968;2023-05-10T04:50:32;13.70;99.90
16829;DHT22;8531;48.078;11.968;2023-05-10T04:52:58;13.70;99.90
16829;DHT22;8531;48.078;11.968;2023-05-10T04:55:24;13.70;99.90
16829;DHT22;8531;48.078;11.968;2023-05-10T04:57:50;13.70;99.90
16829;DHT22;8531;48.078;11.968;2023-05-10T05:00:16;13.70;99.90
16829;DHT22;8531;48.078;11.968;2023-05-10T05:02:45;13.70;99.90
16829;DHT22;8531;48.078;11.968;2023-05-10T05:05:13;13.70;99.90
16829;DHT22;8531;48.078;11.968;2023-05-10T05:07:39;13.70;99.90
16829;DHT22;8531;48.078;11.968;2023-05-10T05:10:06;13.70;99.90
16829;DHT22;8531;48.078;11.968;2023-05-10T05:12:32;13.70;99.90
16829;DHT22;8531;48.078;11.968;2023-05-10T05:14:58;13.60;99.90
16829;DHT22;8531;48.078;11.968;2023-05-10T05:17:24;13.60;99.90
16829;DHT22;8531;48.078;11.968;2023-05-10T05:19:50;13.50;99.90
16829;DHT22;8531;48.078;11.968;2023-05-10T05:22:15;13.50;99.90
16829;DHT22;8531;48.078;11.968;2023-05-10T05:24:41;13.60;99.90
16829;DHT22;8531;48.078;11.968;2023-05-10T05:27:07;13.60;99.90
16829;DHT22;8531;48.078;11.968;2023-05-10T05:29:33;13.60;99.90
16829;DHT22;8531;48.078;11.968;2023-05-10T05:31:59;13.60;99.90
16829;DHT22;8531;48.078;11.968;2023-05-10T05:34:24;13.70;99.90
16829;DHT22;8531;48.078;11.968;2023-05-10T05:36:50;13.70;99.90
16829;DHT22;8531;48.078;11.968;2023-05-10T05:39:16;13.70;99.90
16829;DHT22;8531;48.078;11.968;2023-05-10T05:41:42;13.70;99.90
16829;DHT22;8531;48.078;11.968;2023-05-10T05:44:08;13.70;99.90
16829;DHT22;8531;48.078;11.968;2023-05-10T05:46:33;13.70;99.90
16829;DHT22;8531;48.078;11.968;2023-05-10T05:49:00;13.50;99.90
16829;DHT22;8531;48.078;11.968;2023-05-10T05:51:26;13.40;99.90
16829;DHT22;8531;48.078;11.968;2023-05-10T05:53:52;13.30;99.90
16829;DHT22;8531;48.078;11.968;2023-05-10T05:56:18;13.30;99.90
16829;DHT22;8531;48.078;11.968;2023-05-10T05:58:50;13.30;99.90
16829;DHT22;8531;48.078;11.968;2023-05-10T06:01:15;13.20;99.90
16829;DHT22;8531;48.078;11.968;2023-05-10T06:03:42;13.10;99.90
16829;DHT22;8531;48.078;11.968;2023-05-10T06:06:07;13.00;99.90
16829;DHT22;8531;48.078;11.968;2023-05-10T06:08:33;13.00;99.90
16829;DHT22;8531;48.078;11.968;2023-05-10T06:10:59;13.00;99.90
16829;DHT22;8531;48.078;11.968;2023-05-10T06:13:25;12.90;99.90
16829;DHT22;8531;48.078;11.968;2023-05-10T06:16:00;12.90;99.90
16829;DHT22;8531;48.078;11.968;2023-05-10T06:18:25;12.80;99.90
16829;DHT22;8531;48.078;11.968;2023-05-10T06:20:51;12.80;99.90
16829;DHT22;8531;48.078;11.968;2023-05-10T06:23:17;12.80;99.90
16829;DHT22;8531;48.078;11.968;2023-05-10T06:25:42;12.70;99.90
16829;DHT22;8531;48.078;11.968;2023-05-10T06:28:08;12.60;99.90
16829;DHT22;8531;48.078;11.968;2023-05-10T06:30:36;12.60;99.90
16829;DHT22;8531;48.078;11.968;2023-05-10T06:33:01;12.50;99.90
16829;DHT22;8531;48.078;11.968;2023-05-10T06:35:28;12.50;99.90
16829;DHT22;8531;48.078;11.968;2023-05-10T06:37:54;12.50;99.90
16829;DHT22;8531;48.078;11.968;2023-05-10T06:40:20;12.50;99.90
16829;DHT22;8531;48.078;11.968;2023-05-10T06:42:46;12.50;99.90
16829;DHT22;8531;48.078;11.968;2023-05-10T06:45:13;12.50;99.90
16829;DHT22;8531;48.078;11.968;2023-05-10T06:47:39;12.60;99.90
16829;DHT22;8531;48.078;11.968;2023-05-10T06:50:06;12.60;99.90
16829;DHT22;8531;48.078;11.968;2023-05-10T06:52:32;12.60;99.90
16829;DHT22;8531;48.078;11.968;2023-05-10T06:54:59;12.60;99.90
16829;DHT22;8531;48.078;11.968;2023-05-10T06:57:25;12.70;99.90
16829;DHT22;8531;48.078;11.968;2023-05-10T06:59:51;12.70;99.90
16829;DHT22;8531;48.078;11.968;2023-05-10T07:02:17;12.70;99.90
16829;DHT22;8531;48.078;11.968;2023-05-10T07:04:43;12.80;99.90
16829;DHT22;8531;48.078;11.968;2023-05-10T07:07:09;12.80;99.90
16829;DHT22;8531;48.078;11.968;2023-05-10T07:09:35;12.80;99.90
16829;DHT22;8531;48.078;11.968;2023-05-10T07:12:00;12.90;99.90
16829;DHT22;8531;48.078;11.968;2023-05-10T07:14:27;13.00;99.90
16829;DHT22;8531;48.078;11.968;2023-05-10T07:16:53;13.00;99.90
16829;DHT22;8531;48.078;11.968;2023-05-10T07:19:18;13.00;99.90
16829;DHT22;8531;48.078;11.968;2023-05-10T07:21:45;13.10;99.90
16829;DHT22;8531;48.078;11.968;2023-05-10T07:24:10;13.10;99.90
16829;DHT22;8531;48.078;11.968;2023-05-10T07:26:36;13.20;99.90
16829;DHT22;8531;48.078;11.968;2023-05-10T07:29:02;13.30;99.90
16829;DHT22;8531;48.078;11.968;2023-05-10T07:31:28;13.40;99.90
16829;DHT22;8531;48.078;11.968;2023-05-10T07:33:53;13.40;99.90
16829;DHT22;8531;48.078;11.968;2023-05-10T07:36:19;13.50;99.90
16829;DHT22;8531;48.078;11.968;2023-05-10T07:38:45;13.60;99.90
16829;DHT22;8531;48.078;11.968;2023-05-10T07:41:14;13.80;99.90
16829;DHT22;8531;48.078;11.968;2023-05-10T07:43:39;14.10;99.90
16829;DHT22;8531;48.078;11.968;2023-05-10T07:46:05;14.00;99.90
16829;DHT22;8531;48.078;11.968;2023-05-10T07:48:31;14.10;99.90
16829;DHT22;8531;48.078;11.968;2023-05-10T07:50:57;14.20;99.90
16829;DHT22;8531;48.078;11.968;2023-05-10T07:53:22;14.30;99.90
16829;DHT22;8531;48.078;11.968;2023-05-10T07:55:53;14.50;99.90
16829;DHT22;8531;48.078;11.968;2023-05-10T07:58:20;14.50;99.90
16829;DHT22;8531;48.078;11.968;2023-05-10T08:00:45;14.60;99.90
16829;DHT22;8531;48.078;11.968;2023-05-10T08:03:11;14.60;99.90
16829;DHT22;8531;48.078;11.968;2023-05-10T08:05:37;14.50;99.90
16829;DHT22;8531;48.078;11.968;2023-05-10T08:08:03;14.50;99.90
16829;DHT22;8531;48.078;11.968;2023-05-10T08:10:29;14.40;99.90
16829;DHT22;8531;48.078;11.968;2023-05-10T08:12:55;14.30;99.90
16829;DHT22;8531;48.078;11.968;2023-05-10T08:15:21;14.30;99.90
16829;DHT22;8531;48.078;11.968;2023-05-10T08:17:47;14.20;99.90
16829;DHT22;8531;48.078;11.968;2023-05-10T08:20:12;14.20;99.90
16829;DHT22;8531;48.078;11.968;2023-05-10T08:22:42;14.20;99.90
16829;DHT22;8531;48.078;11.968;2023-05-10T08:25:07;14.40;99.90
16829;DHT22;8531;48.078;11.968;2023-05-10T08:27:33;14.60;99.90
16829;DHT22;8531;48.078;11.968;2023-05-10T08:29:59;14.70;99.90
16829;DHT22;8531;48.078;11.968;2023-05-10T08:32:24;14.80;99.90
16829;DHT22;8531;48.078;11.968;2023-05-10T08:34:50;14.90;99.90
16829;DHT22;8531;48.078;11.968;2023-05-10T08:37:16;15.00;99.90
16829;DHT22;8531;48.078;11.968;2023-05-10T08:39:42;15.00;99.90
16829;DHT22;8531;48.078;11.968;2023-05-10T08:42:08;15.00;99.90
16829;DHT22;8531;48.078;11.968;2023-05-10T08:44:35;14.90;99.90
16829;DHT22;8531;48.078;11.968;2023-05-10T08:47:07;14.90;99.90
16829;DHT22;8531;48.078;11.968;2023-05-10T08:49:34;14.90;99.90
16829;DHT22;8531;48.078;11.968;2023-05-10T08:52:03;14.90;99.90
16829;DHT22;8531;48.078;11.968;2023-05-10T08:54:31;14.80;99.90
16829;DHT22;8531;48.078;11.968;2023-05-10T08:56:57;14.80;99.90
16829;DHT22;8531;48.078;11.968;2023-05-10T08:59:23;14.70;99.90
16829;DHT22;8531;48.078;11.968;2023-05-10T09:01:49;14.70;99.90
16829;DHT22;8531;48.078;11.968;2023-05-10T09:04:15;14.70;99.90
16829;DHT22;8531;48.078;11.968;2023-05-10T09:06:41;14.90;99.90
16829;DHT22;8531;48.078;11.968;2023-05-10T09:09:07;14.90;99.90
16829;DHT22;8531;48.078;11.968;2023-05-10T09:11:32;14.90;99.90
16829;DHT22;8531;48.078;11.968;2023-05-10T09:13:58;15.00;99.90
16829;DHT22;8531;48.078;11.968;2023-05-10T09:16:24;15.10;99.90
16829;DHT22;8531;48.078;11.968;2023-05-10T09:19:05;15.30;99.90
16829;DHT22;8531;48.078;11.968;2023-05-10T09:21:33;15.50;99.90
16829;DHT22;8531;48.078;11.968;2023-05-10T09:24:03;15.70;99.90
16829;DHT22;8531;48.078;11.968;2023-05-10T09:26:30;16.10;99.90
16829;DHT22;8531;48.078;11.968;2023-05-10T09:28:57;16.40;99.90
16829;DHT22;8531;48.078;11.968;2023-05-10T09:31:24;16.60;99.90
16829;DHT22;8531;48.078;11.968;2023-05-10T09:33:53;16.60;99.90
16829;DHT22;8531;48.078;11.968;2023-05-10T09:36:18;16.60;99.90
16829;DHT22;8531;48.078;11.968;2023-05-10T09:38:51;16.50;99.90
16829;DHT22;8531;48.078;11.968;2023-05-10T09:41:20;16.30;99.90
16829;DHT22;8531;48.078;11.968;2023-05-10T09:43:46;16.30;99.90
16829;DHT22;8531;48.078;11.968;2023-05-10T09:46:11;16.30;99.90
16829;DHT22;8531;48.078;11.968;2023-05-10T09:48:46;16.20;99.90
16829;DHT22;8531;48.078;11.968;2023-05-10T09:51:22;16.30;99.90
16829;DHT22;8531;48.078;11.968;2023-05-10T09:53:49;16.50;99.90
16829;DHT22;8531;48.078;11.968;2023-05-10T09:56:34;16.60;99.90
16829;DHT22;8531;48.078;11.968;2023-05-10T09:59:04;16.70;99.90
16829;DHT22;8531;48.078;11.968;2023-05-10T10:01:30;16.80;99.90
16829;DHT22;8531;48.078;11.968;2023-05-10T10:03:57;16.70;99.90
16829;DHT22;8531;48.078;11.968;2023-05-10T10:06:23;16.60;99.90
16829;DHT22;8531;48.078;11.968;2023-05-10T10:08:50;16.60;99.90
16829;DHT22;8531;48.078;11.968;2023-05-10T10:11:16;16.50;99.90
16829;DHT22;8531;48.078;11.968;2023-05-10T10:13:42;16.40;99.90
16829;DHT22;8531;48.078;11.968;2023-05-10T10:16:08;16.40;99.90
16829;DHT22;8531;48.078;11.968;2023-05-10T10:18:36;16.40;99.90
16829;DHT22;8531;48.078;11.968;2023-05-10T10:21:07;16.50;99.90
16829;DHT22;8531;48.078;11.968;2023-05-10T10:23:36;16.50;99.90
16829;DHT22;8531;48.078;11.968;2023-05-10T10:26:03;16.50;99.90
16829;DHT22;8531;48.078;11.968;2023-05-10T10:28:56;16.50;99.90
16829;DHT22;8531;48.078;11.968;2023-05-10T10:31:28;16.50;99.90
16829;DHT22;8531;48.078;11.968;2023-05-10T10:34:11;16.40;99.90
16829;DHT22;8531;48.078;11.968;2023-05-10T10:36:46;16.10;99.90
16829;DHT22;8531;48.078;11.968;2023-05-10T10:39:13;15.70;99.90
16829;DHT22;8531;48.078;11.968;2023-05-10T10:41:48;15.60;99.90
16829;DHT22;8531;48.078;11.968;2023-05-10T10:47:04;15.50;99.90
16829;DHT22;8531;48.078;11.968;2023-05-10T10:54:52;15.40;99.90
16829;DHT22;8531;48.078;11.968;2023-05-10T10:57:19;15.40;99.90
16829;DHT22;8531;48.078;11.968;2023-05-10T10:59:47;15.40;99.90
16829;DHT22;8531;48.078;11.968;2023-05-10T11:07:55;15.50;99.90
16829;DHT22;8531;48.078;11.968;2023-05-10T11:10:23;15.60;99.90
16829;DHT22;8531;48.078;11.968;2023-05-10T11:13:01;15.70;99.90
16829;DHT22;8531;48.078;11.968;2023-05-10T11:15:38;15.70;99.90
16829;DHT22;8531;48.078;11.968;2023-05-10T11:18:23;15.70;99.90
16829;DHT22;8531;48.078;11.968;2023-05-10T11:20:57;15.80;99.90
16829;DHT22;8531;48.078;11.968;2023-05-10T11:23:28;15.90;99.90
16829;DHT22;8531;48.078;11.968;2023-05-10T11:25:55;15.90;99.90
16829;DHT22;8531;48.078;11.968;2023-05-10T11:28:20;16.00;99.90
16829;DHT22;8531;48.078;11.968;2023-05-10T11:30:46;16.20;99.90
16829;DHT22;8531;48.078;11.968;2023-05-10T11:33:17;16.20;99.90
16829;DHT22;8531;48.078;11.968;2023-05-10T11:35:43;16.30;99.90
16829;DHT22;8531;48.078;11.968;2023-05-10T11:38:10;16.30;99.90
16829;DHT22;8531;48.078;11.968;2023-05-10T11:40:36;16.40;99.90
16829;DHT22;8531;48.078;11.968;2023-05-10T11:43:03;16.10;99.90
16829;DHT22;8531;48.078;11.968;2023-05-10T11:45:33;16.10;99.90
16829;DHT22;8531;48.078;11.968;2023-05-10T11:47:59;16.10;99.90
16829;DHT22;8531;48.078;11.968;2023-05-10T11:50:25;16.10;99.90
16829;DHT22;8531;48.078;11.968;2023-05-10T11:52:52;15.90;99.90
16829;DHT22;8531;48.078;11.968;2023-05-10T11:55:18;15.80;99.90
16829;DHT22;8531;48.078;11.968;2023-05-10T11:57:44;15.80;99.90
16829;DHT22;8531;48.078;11.968;2023-05-10T12:00:12;15.90;99.90
16829;DHT22;8531;48.078;11.968;2023-05-10T12:02:38;15.90;99.90
16829;DHT22;8531;48.078;11.968;2023-05-10T12:05:05;15.90;99.90
16829;DHT22;8531;48.078;11.968;2023-05-10T12:07:34;15.90;99.90
16829;DHT22;8531;48.078;11.968;2023-05-10T12:10:12;15.70;99.90
16829;DHT22;8531;48.078;11.968;2023-05-10T12:12:45;15.60;99.90
16829;DHT22;8531;48.078;11.968;2023-05-10T12:15:18;15.60;99.90
16829;DHT22;8531;48.078;11.968;2023-05-10T12:17:46;15.60;99.90
16829;DHT22;8531;48.078;11.968;2023-05-10T12:20:23;15.70;99.90
16829;DHT22;8531;48.078;11.968;2023-05-10T12:22:54;15.80;99.90
16829;DHT22;8531;48.078;11.968;2023-05-10T12:25:21;15.80;99.90
16829;DHT22;8531;48.078;11.968;2023-05-10T12:27:55;15.80;99.90
16829;DHT22;8531;48.078;11.968;2023-05-10T12:30:26;15.70;99.90
16829;DHT22;8531;48.078;11.968;2023-05-10T12:32:53;15.40;99.90
16829;DHT22;8531;48.078;11.968;2023-05-10T12:35:19;15.40;99.90
16829;DHT22;8531;48.078;11.968;2023-05-10T12:37:51;15.20;99.90
16829;DHT22;8531;48.078;11.968;2023-05-10T12:40:17;15.00;99.90
16829;DHT22;8531;48.078;11.968;2023-05-10T12:42:42;14.80;99.90
16829;DHT22;8531;48.078;11.968;2023-05-10T12:45:11;14.40;99.90
16829;DHT22;8531;48.078;11.968;2023-05-10T12:47:37;14.20;99.90
16829;DHT22;8531;48.078;11.968;2023-05-10T12:50:04;14.10;99.90
16829;DHT22;8531;48.078;11.968;2023-05-10T12:52:31;14.10;99.90
16829;DHT22;8531;48.078;11.968;2023-05-10T12:55:00;14.10;99.90
16829;DHT22;8531;48.078;11.968;2023-05-10T12:57:26;13.90;99.90
16829;DHT22;8531;48.078;11.968;2023-05-10T12:59:52;13.80;99.90
16829;DHT22;8531;48.078;11.968;2023-05-10T13:02:18;13.60;99.90
16829;DHT22;8531;48.078;11.968;2023-05-10T13:04:44;13.60;99.90
16829;DHT22;8531;48.078;11.968;2023-05-10T13:07:11;13.50;99.90
16829;DHT22;8531;48.078;11.968;2023-05-10T13:09:37;13.50;99.90
16829;DHT22;8531;48.078;11.968;2023-05-10T13:12:03;13.50;99.90
16829;DHT22;8531;48.078;11.968;2023-05-10T13:14:29;13.50;99.90
16829;DHT22;8531;48.078;11.968;2023-05-10T13:16:55;13.50;99.90
16829;DHT22;8531;48.078;11.968;2023-05-10T13:19:21;13.60;99.90
16829;DHT22;8531;48.078;11.968;2023-05-10T13:21:46;13.60;99.90
16829;DHT22;8531;48.078;11.968;2023-05-10T13:24:12;13.60;99.90
16829;DHT22;8531;48.078;11.968;2023-05-10T13:26:42;13.60;99.90
16829;DHT22;8531;48.078;11.968;2023-05-10T13:29:08;13.50;99.90
16829;DHT22;8531;48.078;11.968;2023-05-10T13:31:34;13.40;99.90
16829;DHT22;8531;48.078;11.968;2023-05-10T13:34:01;13.50;99.90
16829;DHT22;8531;48.078;11.968;2023-05-10T13:36:27;13.40;99.90
16829;DHT22;8531;48.078;11.968;2023-05-10T13:38:52;13.30;99.90
16829;DHT22;8531;48.078;11.968;2023-05-10T13:41:18;13.30;99.90
16829;DHT22;8531;48.078;11.968;2023-05-10T13:43:44;13.40;99.90
16829;DHT22;8531;48.078;11.968;2023-05-10T13:46:09;13.50;99.90
16829;DHT22;8531;48.078;11.968;2023-05-10T13:48:36;13.50;99.90
16829;DHT22;8531;48.078;11.968;2023-05-10T13:51:04;13.60;99.90
16829;DHT22;8531;48.078;11.968;2023-05-10T13:53:29;13.60;99.90
16829;DHT22;8531;48.078;11.968;2023-05-10T13:55:55;13.60;99.90
16829;DHT22;8531;48.078;11.968;2023-05-10T13:58:21;13.60;99.90
16829;DHT22;8531;48.078;11.968;2023-05-10T14:00:46;13.70;99.90
16829;DHT22;8531;48.078;11.968;2023-05-10T14:03:13;13.70;99.90
16829;DHT22;8531;48.078;11.968;2023-05-10T14:05:38;13.60;99.90
16829;DHT22;8531;48.078;11.968;2023-05-10T14:08:04;13.50;99.90
16829;DHT22;8531;48.078;11.968;2023-05-10T14:10:30;13.60;99.90
16829;DHT22;8531;48.078;11.968;2023-05-10T14:12:57;13.50;99.90
16829;DHT22;8531;48.078;11.968;2023-05-10T14:15:22;13.50;99.90
16829;DHT22;8531;48.078;11.968;2023-05-10T14:17:48;13.60;99.90
16829;DHT22;8531;48.078;11.968;2023-05-10T14:20:15;13.70;99.90
16829;DHT22;8531;48.078;11.968;2023-05-10T14:22:41;13.70;99.90
16829;DHT22;8531;48.078;11.968;2023-05-10T14:25:07;13.80;99.90
16829;DHT22;8531;48.078;11.968;2023-05-10T14:27:33;13.90;99.90
16829;DHT22;8531;48.078;11.968;2023-05-10T14:29:58;13.80;99.90
16829;DHT22;8531;48.078;11.968;2023-05-10T14:32:24;13.80;99.90
16829;DHT22;8531;48.078;11.968;2023-05-10T14:34:50;13.80;99.90
16829;DHT22;8531;48.078;11.968;2023-05-10T14:37:16;13.90;99.90
16829;DHT22;8531;48.078;11.968;2023-05-10T14:39:41;14.00;99.90
16829;DHT22;8531;48.078;11.968;2023-05-10T14:42:08;14.00;99.90
16829;DHT22;8531;48.078;11.968;2023-05-10T14:44:34;13.90;99.90
16829;DHT22;8531;48.078;11.968;2023-05-10T14:46:59;13.80;99.90
16829;DHT22;8531;48.078;11.968;2023-05-10T14:49:25;13.80;99.90
16829;DHT22;8531;48.078;11.968;2023-05-10T14:51:52;13.80;99.90
16829;DHT22;8531;48.078;11.968;2023-05-10T14:54:18;13.80;99.90
16829;DHT22;8531;48.078;11.968;2023-05-10T14:56:44;13.70;99.90
16829;DHT22;8531;48.078;11.968;2023-05-10T14:59:10;13.70;99.90
16829;DHT22;8531;48.078;11.968;2023-05-10T15:01:36;13.70;99.90
16829;DHT22;8531;48.078;11.968;2023-05-10T15:04:05;13.70;99.90
16829;DHT22;8531;48.078;11.968;2023-05-10T15:06:32;13.70;99.90
16829;DHT22;8531;48.078;11.968;2023-05-10T15:08:58;13.70;99.90
16829;DHT22;8531;48.078;11.968;2023-05-10T15:11:24;13.60;99.90
16829;DHT22;8531;48.078;11.968;2023-05-10T15:13:49;13.70;99.90
16829;DHT22;8531;48.078;11.968;2023-05-10T15:16:15;13.70;99.90
16829;DHT22;8531;48.078;11.968;2023-05-10T15:18:41;13.70;99.90
16829;DHT22;8531;48.078;11.968;2023-05-10T15:21:06;13.60;99.90
16829;DHT22;8531;48.078;11.968;2023-05-10T15:23:32;13.50;99.90
16829;DHT22;8531;48.078;11.968;2023-05-10T15:25:58;13.40;99.90
16829;DHT22;8531;48.078;11.968;2023-05-10T15:28:23;13.40;99.90
16829;DHT22;8531;48.078;11.968;2023-05-10T15:30:49;13.40;99.90
16829;DHT22;8531;48.078;11.968;2023-05-10T15:33:15;13.30;99.90
16829;DHT22;8531;48.078;11.968;2023-05-10T15:35:41;13.30;99.90
16829;DHT22;8531;48.078;11.968;2023-05-10T15:38:06;13.30;99.90
16829;DHT22;8531;48.078;11.968;2023-05-10T15:40:32;13.30;99.90
16829;DHT22;8531;48.078;11.968;2023-05-10T15:42:58;13.30;99.90
16829;DHT22;8531;48.078;11.968;2023-05-10T15:45:23;13.30;99.90
16829;DHT22;8531;48.078;11.968;2023-05-10T15:47:49;13.30;99.90
16829;DHT22;8531;48.078;11.968;2023-05-10T15:50:15;13.20;99.90
16829;DHT22;8531;48.078;11.968;2023-05-10T15:52:41;13.20;99.90
16829;DHT22;8531;48.078;11.968;2023-05-10T15:55:08;13.20;99.90